Time;durP1;ratioP1;P1;durP2;ratioP2;P2;SDS_P1;SDS_P2;PMS_P1;PMS_P2;Temp;Humidity;BMP_temperature;BMP_pressure;BME280_temperature;BME280_humidity;BME280_pressure;Samples;Min_cycle;Max_cycle;Signal;HPM_P1;HPM_P2
2021/11/03 00:00:30;;;;;;;60.65;28.23;;;8.00;99.90;;;;;;5015275;28;20042;-94
2021/11/03 00:02:56;;;;;;;59.90;28.35;;;8.00;99.90;;;;;;4983427;28;20049;-93
2021/11/03 00:05:22;;;;;;;51.88;26.10;;;8.00;99.90;;;;;;5016075;28;20048;-96
2021/11/03 00:07:48;;;;;;;58.88;28.02;;;7.90;99.90;;;;;;4983729;28;20037;-93
2021/11/03 00:10:15;;;;;;;63.95;29.15;;;8.00;99.90;;;;;;4999254;28;20483;-95
2021/11/03 00:12:41;;;;;;;67.20;28.48;;;7.90;99.90;;;;;;5015703;28;20048;-96
2021/11/03 00:15:09;;;;;;;62.25;28.48;;;7.90;99.90;;;;;;5015422;28;20238;-94
2021/11/03 00:17:37;;;;;;;64.55;30.23;;;7.90;99.90;;;;;;5000148;28;20124;-95
2021/11/03 00:20:03;;;;;;;70.45;30.23;;;8.00;99.90;;;;;;5015351;28;20045;-94
2021/11/03 00:22:29;;;;;;;62.60;28.70;;;8.00;99.90;;;;;;4998935;28;20056;-95
2021/11/03 00:24:55;;;;;;;64.50;29.67;;;8.00;99.90;;;;;;4982076;28;20129;-95
2021/11/03 00:27:20;;;;;;;61.05;28.70;;;8.00;99.90;;;;;;5015648;28;20069;-93
2021/11/03 00:29:46;;;;;;;57.30;27.92;;;8.10;99.90;;;;;;4982754;28;20049;-95
2021/11/03 00:32:14;;;;;;;56.90;28.52;;;8.00;99.90;;;;;;4999953;28;20436;-96
2021/11/03 00:34:40;;;;;;;55.05;26.90;;;8.00;99.90;;;;;;5002322;28;20041;-95
2021/11/03 00:37:06;;;;;;;53.75;26.42;;;8.00;99.90;;;;;;5025735;28;20101;-96
2021/11/03 00:39:32;;;;;;;56.15;28.42;;;8.00;99.90;;;;;;5026676;28;20100;-96
2021/11/03 00:41:58;;;;;;;48.53;25.52;;;8.00;99.90;;;;;;5001526;28;20076;-96
2021/11/03 00:44:25;;;;;;;52.53;27.08;;;8.10;99.90;;;;;;5001252;28;20049;-94
2021/11/03 00:46:51;;;;;;;50.08;27.00;;;8.00;99.90;;;;;;5016004;28;20033;-93
2021/11/03 00:49:18;;;;;;;49.45;26.38;;;8.10;99.90;;;;;;5016798;28;20037;-96
2021/11/03 00:51:45;;;;;;;57.70;27.88;;;8.10;99.90;;;;;;5004359;28;20041;-93
2021/11/03 00:54:11;;;;;;;50.90;25.83;;;8.00;99.90;;;;;;5017873;28;20103;-96
2021/11/03 00:56:38;;;;;;;50.33;25.80;;;8.10;99.90;;;;;;5015461;28;20091;-96
2021/11/03 00:59:04;;;;;;;51.50;26.17;;;8.00;99.90;;;;;;4998668;28;20385;-94
2021/11/03 01:01:30;;;;;;;50.80;26.23;;;8.00;99.90;;;;;;4998277;28;20095;-95
2021/11/03 01:03:56;;;;;;;53.28;26.90;;;8.00;99.90;;;;;;5016179;28;20041;-94
2021/11/03 01:06:22;;;;;;;49.53;26.58;;;8.00;99.90;;;;;;4998577;28;20132;-94
2021/11/03 01:08:48;;;;;;;54.70;26.00;;;7.90;99.90;;;;;;5014824;28;20390;-93
2021/11/03 01:11:13;;;;;;;55.33;27.02;;;8.00;99.90;;;;;;5001133;28;20033;-95
2021/11/03 01:13:40;;;;;;;58.78;25.30;;;7.90;99.90;;;;;;5022099;28;20037;-94
2021/11/03 01:16:05;;;;;;;65.55;26.60;;;7.90;99.90;;;;;;5021470;28;20045;-94
2021/11/03 01:18:32;;;;;;;53.00;25.95;;;7.90;99.90;;;;;;5005568;28;20084;-94
2021/11/03 01:20:59;;;;;;;50.22;24.98;;;7.90;99.90;;;;;;5021759;28;20482;-95
2021/11/03 01:23:26;;;;;;;47.53;26.40;;;7.90;99.90;;;;;;5005672;28;20049;-96
2021/11/03 01:25:52;;;;;;;50.17;27.00;;;7.90;99.90;;;;;;5005331;28;20544;-96
2021/11/03 01:28:19;;;;;;;41.63;23.80;;;8.00;99.90;;;;;;4989324;28;20048;-96
2021/11/03 01:30:46;;;;;;;52.38;24.42;;;7.90;99.90;;;;;;5021705;28;20052;-96
2021/11/03 01:33:17;;;;;;;46.33;24.58;;;7.90;99.90;;;;;;5021877;28;20068;-96
2021/11/03 01:35:43;;;;;;;47.13;24.88;;;7.90;99.90;;;;;;5007720;28;20037;-96
2021/11/03 01:38:10;;;;;;;41.83;24.23;;;7.90;99.90;;;;;;5006554;28;20358;-96
2021/11/03 01:40:39;;;;;;;47.50;25.63;;;7.90;99.90;;;;;;5022075;28;20041;-96
2021/11/03 01:43:07;;;;;;;57.50;26.00;;;7.80;99.90;;;;;;5021747;28;20072;-95
2021/11/03 01:45:33;;;;;;;53.13;24.10;;;7.90;99.90;;;;;;5005683;28;20053;-96
2021/11/03 01:48:02;;;;;;;46.40;23.08;;;7.80;99.90;;;;;;5005267;28;20045;-96
2021/11/03 01:50:34;;;;;;;43.67;23.92;;;7.90;99.90;;;;;;5005181;28;20124;-95
2021/11/03 01:53:21;;;;;;;46.95;25.02;;;7.80;99.90;;;;;;5021110;28;20506;-96
2021/11/03 01:55:57;;;;;;;44.28;22.50;;;7.80;99.90;;;;;;5005432;28;20091;-96
2021/11/03 01:58:28;;;;;;;37.35;22.35;;;7.80;99.90;;;;;;5021723;28;20034;-96
2021/11/03 02:00:58;;;;;;;50.05;22.95;;;7.80;99.90;;;;;;5005456;28;20044;-96
2021/11/03 02:03:28;;;;;;;45.30;23.58;;;7.80;99.90;;;;;;5005598;28;20041;-94
2021/11/03 02:05:59;;;;;;;48.25;22.83;;;7.70;99.90;;;;;;5021449;28;20033;-96
2021/11/03 02:08:28;;;;;;;44.35;22.00;;;7.70;99.90;;;;;;5005416;28;20076;-96
2021/11/03 02:10:54;;;;;;;41.22;21.58;;;7.70;99.90;;;;;;5021317;28;20038;-96
2021/11/03 02:13:20;;;;;;;38.22;20.73;;;7.70;99.90;;;;;;5005729;28;20041;-95
2021/11/03 02:15:46;;;;;;;44.67;22.48;;;7.70;99.90;;;;;;5005530;28;20042;-96
2021/11/03 02:18:15;;;;;;;49.10;20.77;;;7.70;99.90;;;;;;5010497;28;20041;-96
2021/11/03 02:20:51;;;;;;;37.75;20.83;;;7.70;99.90;;;;;;5025146;28;20105;-96
2021/11/03 02:23:22;;;;;;;42.15;19.88;;;7.70;99.90;;;;;;5022560;28;20033;-95
2021/11/03 02:25:56;;;;;;;40.10;20.13;;;7.60;99.90;;;;;;5001592;28;20060;-95
2021/11/03 02:28:24;;;;;;;43.17;20.35;;;7.60;99.90;;;;;;5000103;28;20046;-96
2021/11/03 02:30:50;;;;;;;41.72;19.58;;;7.60;99.90;;;;;;5015424;28;20037;-96
2021/11/03 02:33:20;;;;;;;37.33;18.45;;;7.50;99.90;;;;;;4998660;28;20050;-96
2021/11/03 02:35:59;;;;;;;37.65;17.95;;;7.50;99.90;;;;;;4999129;28;20706;-96
2021/11/03 02:38:27;;;;;;;31.75;18.00;;;7.50;99.90;;;;;;5015370;28;20045;-96
2021/11/03 02:41:10;;;;;;;26.65;15.98;;;7.40;99.90;;;;;;4999066;28;20046;-96
2021/11/03 02:43:56;;;;;;;32.38;16.63;;;7.40;99.90;;;;;;5016060;28;20363;-95
2021/11/03 02:46:26;;;;;;;31.02;16.33;;;7.40;99.90;;;;;;5003681;28;20057;-96
2021/11/03 02:48:51;;;;;;;28.40;16.13;;;7.30;99.90;;;;;;5015219;28;20489;-96
2021/11/03 02:51:29;;;;;;;25.40;14.40;;;7.30;99.90;;;;;;4998487;28;20041;-96
2021/11/03 02:54:03;;;;;;;28.65;15.38;;;7.30;99.90;;;;;;4993535;28;20557;-92
2021/11/03 02:56:31;;;;;;;27.88;15.43;;;7.30;99.90;;;;;;4997256;28;20605;-93
2021/11/03 02:58:57;;;;;;;26.42;14.35;;;7.30;99.90;;;;;;5014377;28;20104;-96
2021/11/03 03:01:29;;;;;;;29.90;13.80;;;7.30;99.90;;;;;;5014122;28;20480;-95
2021/11/03 03:03:55;;;;;;;26.10;14.05;;;7.30;99.90;;;;;;4998057;28;20100;-95
2021/11/03 03:06:24;;;;;;;30.83;15.35;;;7.30;99.90;;;;;;5013770;28;20108;-94
2021/11/03 03:08:52;;;;;;;35.88;12.93;;;7.30;99.90;;;;;;4997770;28;20133;-94
2021/11/03 03:11:19;;;;;;;28.80;14.55;;;7.30;99.90;;;;;;4997266;28;20481;-95
2021/11/03 03:13:45;;;;;;;26.27;14.48;;;7.30;99.90;;;;;;5014056;28;20074;-95
2021/11/03 03:16:11;;;;;;;26.67;13.15;;;7.40;99.90;;;;;;5013990;28;20390;-95
2021/11/03 03:18:37;;;;;;;30.77;13.98;;;7.30;99.90;;;;;;4981451;28;20046;-96
2021/11/03 03:21:03;;;;;;;28.58;13.02;;;7.30;99.90;;;;;;4998241;28;20053;-94
2021/11/03 03:23:28;;;;;;;25.85;12.85;;;7.40;99.90;;;;;;4981592;28;20049;-96
2021/11/03 03:25:55;;;;;;;24.38;11.95;;;7.30;99.90;;;;;;4981203;28;20061;-96
2021/11/03 03:28:21;;;;;;;20.15;10.80;;;7.40;99.90;;;;;;4997464;28;20106;-96
2021/11/03 03:30:47;;;;;;;23.10;11.07;;;7.40;99.90;;;;;;4997108;28;20046;-96
2021/11/03 03:33:13;;;;;;;20.05;10.43;;;7.30;99.90;;;;;;5013202;28;20425;-96
2021/11/03 03:35:39;;;;;;;19.05;10.88;;;7.30;99.90;;;;;;5012782;28;20580;-96
2021/11/03 03:38:04;;;;;;;17.45;9.80;;;7.30;99.90;;;;;;4980469;28;20470;-93
2021/11/03 03:40:30;;;;;;;21.90;10.18;;;7.30;99.90;;;;;;5013521;28;20049;-96
2021/11/03 03:42:56;;;;;;;21.75;10.38;;;7.30;99.90;;;;;;4996736;28;20088;-96
2021/11/03 03:45:22;;;;;;;18.88;8.93;;;7.30;99.90;;;;;;5012960;28;20038;-94
2021/11/03 03:47:47;;;;;;;22.13;9.82;;;7.30;99.90;;;;;;4996966;28;20041;-95
2021/11/03 03:50:14;;;;;;;18.77;8.90;;;7.30;99.90;;;;;;5012659;28;20125;-95
2021/11/03 03:52:40;;;;;;;20.15;9.77;;;7.30;99.90;;;;;;4996832;28;20508;-96
2021/11/03 03:55:08;;;;;;;22.10;9.95;;;7.30;99.90;;;;;;4996859;28;20050;-95
2021/11/03 03:57:34;;;;;;;19.05;9.27;;;7.30;99.90;;;;;;4981022;28;20117;-96
2021/11/03 04:00:00;;;;;;;15.88;8.93;;;7.30;99.90;;;;;;4997208;28;20038;-95
2021/11/03 04:02:25;;;;;;;17.58;9.18;;;7.30;99.90;;;;;;4980362;28;20145;-96
2021/11/03 04:04:51;;;;;;;18.17;9.52;;;7.30;99.90;;;;;;4981737;28;20038;-96
2021/11/03 04:07:17;;;;;;;13.73;8.93;;;7.30;99.90;;;;;;4996214;28;20049;-95
2021/11/03 04:09:42;;;;;;;15.77;8.40;;;7.30;99.90;;;;;;5012545;28;20107;-94
2021/11/03 04:12:09;;;;;;;13.73;8.90;;;7.30;99.90;;;;;;4996168;28;20466;-96
2021/11/03 04:14:35;;;;;;;21.40;8.88;;;7.30;99.90;;;;;;5012739;28;20046;-95
2021/11/03 04:17:01;;;;;;;15.27;8.25;;;7.30;99.90;;;;;;5012971;28;20076;-95
2021/11/03 04:19:26;;;;;;;20.42;8.70;;;7.30;99.90;;;;;;4995939;28;20049;-96
2021/11/03 04:21:52;;;;;;;16.45;7.72;;;7.20;99.90;;;;;;5012850;28;20493;-96
2021/11/03 04:24:18;;;;;;;21.15;8.18;;;7.30;99.90;;;;;;4995534;28;20543;-96
2021/11/03 04:26:47;;;;;;;13.63;7.68;;;7.20;99.90;;;;;;4998930;28;20041;-93
2021/11/03 04:29:14;;;;;;;14.18;7.68;;;7.30;99.90;;;;;;5010977;28;20094;-92
2021/11/03 04:31:40;;;;;;;10.20;7.45;;;7.30;99.90;;;;;;4995214;28;20129;-94
2021/11/03 04:34:06;;;;;;;13.32;7.53;;;7.30;99.90;;;;;;5011765;28;20116;-93
2021/11/03 04:36:32;;;;;;;11.68;7.30;;;7.30;99.90;;;;;;4995223;28;20046;-94
2021/11/03 04:39:04;;;;;;;12.25;7.85;;;7.20;99.90;;;;;;4979328;28;20042;-94
2021/11/03 04:41:30;;;;;;;10.45;6.70;;;7.20;99.90;;;;;;5012146;28;20243;-94
2021/11/03 04:43:56;;;;;;;12.70;7.13;;;7.20;99.90;;;;;;4996051;28;20462;-94
2021/11/03 04:46:22;;;;;;;9.32;6.85;;;7.20;99.90;;;;;;4995234;28;20382;-94
2021/11/03 04:48:48;;;;;;;14.63;7.43;;;7.20;99.90;;;;;;5011921;28;20037;-96
2021/11/03 04:51:14;;;;;;;11.73;6.60;;;7.20;99.90;;;;;;4995315;28;20050;-94
2021/11/03 04:53:41;;;;;;;10.60;7.05;;;7.20;99.90;;;;;;4995425;28;20046;-94
2021/11/03 04:56:07;;;;;;;15.23;7.38;;;7.20;99.90;;;;;;4995632;28;20068;-94
2021/11/03 04:58:33;;;;;;;14.35;7.00;;;7.20;99.90;;;;;;4995221;28;20081;-94
2021/11/03 05:01:00;;;;;;;12.13;6.43;;;7.20;99.90;;;;;;4995412;28;20477;-95
2021/11/03 05:03:26;;;;;;;14.35;7.32;;;7.20;99.90;;;;;;5011516;28;20045;-94
2021/11/03 05:05:53;;;;;;;9.90;6.18;;;7.20;99.90;;;;;;4995463;28;20469;-94
2021/11/03 05:08:19;;;;;;;10.60;6.80;;;7.20;99.90;;;;;;5011397;28;20133;-95
2021/11/03 05:10:45;;;;;;;10.15;6.10;;;7.10;99.90;;;;;;4995218;28;20125;-95
2021/11/03 05:13:11;;;;;;;14.95;8.27;;;7.10;99.90;;;;;;4999433;28;20065;-92
2021/11/03 05:15:36;;;;;;;7.80;6.28;;;7.20;99.90;;;;;;5018310;28;20049;-94
2021/11/03 05:18:03;;;;;;;9.45;6.95;;;7.10;99.90;;;;;;5001845;28;20050;-96
2021/11/03 05:20:29;;;;;;;10.43;6.70;;;7.10;99.90;;;;;;5011060;28;20045;-94
2021/11/03 05:22:54;;;;;;;11.98;6.90;;;7.00;99.90;;;;;;5011969;28;20038;-96
2021/11/03 05:25:26;;;;;;;11.88;6.82;;;7.10;99.90;;;;;;5011537;28;20089;-96
2021/11/03 05:27:53;;;;;;;7.63;6.82;;;7.10;99.90;;;;;;5011477;28;20042;-93
2021/11/03 05:30:21;;;;;;;10.57;6.63;;;7.00;99.90;;;;;;4994199;28;20041;-93
2021/11/03 05:32:47;;;;;;;12.15;7.68;;;7.00;99.90;;;;;;4994553;28;20058;-94
2021/11/03 05:35:14;;;;;;;8.63;6.72;;;7.00;99.90;;;;;;5010677;28;20042;-93
2021/11/03 05:37:40;;;;;;;10.60;7.45;;;7.10;99.90;;;;;;5010760;28;20038;-91
2021/11/03 05:40:11;;;;;;;11.27;7.40;;;7.10;99.90;;;;;;4977987;28;20701;-91
2021/11/03 05:42:36;;;;;;;11.32;7.55;;;7.00;99.90;;;;;;5010054;28;20050;-93
2021/11/03 05:45:03;;;;;;;9.57;7.70;;;7.00;99.90;;;;;;4977924;28;20425;-92
2021/11/03 05:47:29;;;;;;;11.73;7.63;;;7.00;99.90;;;;;;5010330;28;20133;-91
2021/11/03 05:49:57;;;;;;;13.15;7.60;;;7.00;99.90;;;;;;4994007;28;20443;-91
2021/11/03 05:52:24;;;;;;;10.90;8.30;;;7.00;99.90;;;;;;4994137;28;20474;-91
2021/11/03 05:54:50;;;;;;;13.25;7.85;;;7.00;99.90;;;;;;5010450;28;20075;-90
2021/11/03 05:57:27;;;;;;;12.63;7.78;;;7.00;99.90;;;;;;5010661;28;20044;-94
2021/11/03 05:59:53;;;;;;;14.27;7.35;;;7.00;99.90;;;;;;5015323;28;20046;-93
2021/11/03 06:02:20;;;;;;;11.02;7.18;;;7.00;99.90;;;;;;5014901;28;20050;-93
2021/11/03 06:04:46;;;;;;;18.33;8.60;;;6.90;99.90;;;;;;4998540;28;20038;-93
2021/11/03 06:07:13;;;;;;;10.77;7.72;;;7.00;99.90;;;;;;4998569;28;20099;-92
2021/11/03 06:09:39;;;;;;;13.07;8.07;;;7.00;99.90;;;;;;4997851;28;20038;-93
2021/11/03 06:12:06;;;;;;;11.80;7.60;;;6.90;99.90;;;;;;4998508;28;20077;-92
2021/11/03 06:14:32;;;;;;;9.32;7.43;;;6.90;99.90;;;;;;4998306;28;20041;-92
2021/11/03 06:16:57;;;;;;;10.48;7.38;;;6.80;99.90;;;;;;4998556;28;20052;-96
2021/11/03 06:19:23;;;;;;;15.20;7.90;;;6.80;99.90;;;;;;5015102;28;20046;-96
2021/11/03 06:21:49;;;;;;;9.55;8.02;;;6.80;99.90;;;;;;5014850;28;20049;-95
2021/11/03 06:24:15;;;;;;;11.18;8.27;;;6.80;99.90;;;;;;4998005;28;20054;-96
2021/11/03 06:26:40;;;;;;;16.33;7.75;;;6.80;99.90;;;;;;4981211;28;20140;-93
2021/11/03 06:29:07;;;;;;;12.45;7.63;;;6.80;99.90;;;;;;5014009;28;20070;-91
2021/11/03 06:31:34;;;;;;;13.27;7.70;;;6.70;99.90;;;;;;5013563;28;20042;-92
2021/11/03 06:34:00;;;;;;;13.85;7.90;;;6.70;99.90;;;;;;5014229;28;20469;-90
2021/11/03 06:36:26;;;;;;;11.32;7.57;;;6.70;99.90;;;;;;5013982;28;20046;-90
2021/11/03 06:38:51;;;;;;;13.43;7.90;;;6.70;99.90;;;;;;5013989;28;20045;-91
2021/11/03 06:41:18;;;;;;;9.90;7.30;;;6.60;99.90;;;;;;5013779;28;20076;-90
2021/11/03 06:43:45;;;;;;;18.58;7.90;;;6.60;99.90;;;;;;5013592;28;20053;-91
2021/11/03 06:46:11;;;;;;;9.55;7.70;;;6.70;99.90;;;;;;4997196;28;20040;-91
2021/11/03 06:48:38;;;;;;;10.43;8.27;;;6.60;99.90;;;;;;5013149;28;20046;-91
2021/11/03 06:51:04;;;;;;;15.48;8.65;;;6.60;99.90;;;;;;4997370;28;20474;-91
2021/11/03 06:53:30;;;;;;;14.75;8.70;;;6.60;99.90;;;;;;4996828;28;20068;-92
2021/11/03 06:55:56;;;;;;;19.90;10.07;;;6.70;99.90;;;;;;4997138;28;20038;-92
2021/11/03 06:58:23;;;;;;;14.30;9.43;;;6.70;99.90;;;;;;5013287;28;20124;-92
2021/11/03 07:00:51;;;;;;;17.52;10.15;;;6.70;99.90;;;;;;4980900;28;20200;-91
2021/11/03 07:03:17;;;;;;;24.80;10.82;;;6.60;99.90;;;;;;4997276;28;20466;-90
2021/11/03 07:05:45;;;;;;;15.15;9.50;;;6.60;99.90;;;;;;4996464;28;20407;-91
2021/11/03 07:08:12;;;;;;;14.07;9.98;;;6.70;99.90;;;;;;4996839;28;20136;-91
2021/11/03 07:10:42;;;;;;;14.73;10.05;;;6.70;99.90;;;;;;5012066;28;20049;-91
2021/11/03 07:13:08;;;;;;;16.52;9.45;;;6.70;99.90;;;;;;5013035;28;20398;-92
2021/11/03 07:15:35;;;;;;;23.85;10.00;;;6.70;99.90;;;;;;5013338;28;20061;-92
2021/11/03 07:18:03;;;;;;;15.13;10.02;;;6.70;99.90;;;;;;5013095;28;20389;-92
2021/11/03 07:20:29;;;;;;;12.68;8.82;;;6.70;99.90;;;;;;5012877;28;20088;-92
2021/11/03 07:22:55;;;;;;;22.30;10.95;;;6.80;99.90;;;;;;4996788;28;20057;-93
2021/11/03 07:25:24;;;;;;;19.00;10.52;;;6.80;99.90;;;;;;4980842;28;20054;-91
2021/11/03 07:27:51;;;;;;;14.50;9.80;;;6.80;99.90;;;;;;4996761;28;20394;-91
2021/11/03 07:30:19;;;;;;;23.88;11.00;;;6.80;99.90;;;;;;4996535;28;20132;-91
2021/11/03 07:32:45;;;;;;;20.13;11.15;;;6.80;99.90;;;;;;5012614;28;20490;-92
2021/11/03 07:35:11;;;;;;;20.08;11.65;;;6.80;99.90;;;;;;5013177;28;20125;-92
2021/11/03 07:37:37;;;;;;;26.08;12.15;;;6.70;99.90;;;;;;4996904;28;20057;-92
2021/11/03 07:40:06;;;;;;;23.17;12.35;;;6.70;99.90;;;;;;4996744;28;20033;-91
2021/11/03 07:42:32;;;;;;;21.40;13.15;;;6.70;99.90;;;;;;5012412;28;20042;-91
2021/11/03 07:44:58;;;;;;;28.02;14.32;;;6.70;99.90;;;;;;5012914;28;20129;-94
2021/11/03 07:47:24;;;;;;;27.35;15.07;;;6.70;99.90;;;;;;4980091;28;20141;-92
2021/11/03 07:49:50;;;;;;;31.15;16.65;;;6.60;99.90;;;;;;4996301;28;20120;-92
2021/11/03 07:52:16;;;;;;;28.98;16.58;;;6.60;99.90;;;;;;5012790;28;20124;-92
2021/11/03 07:54:43;;;;;;;28.42;16.67;;;6.60;99.90;;;;;;4996089;28;20128;-92
2021/11/03 07:57:09;;;;;;;29.77;17.33;;;6.60;99.90;;;;;;5012828;28;20049;-92
2021/11/03 07:59:35;;;;;;;31.02;17.80;;;6.60;99.90;;;;;;4995709;28;20049;-92
2021/11/03 08:02:01;;;;;;;34.05;20.60;;;6.60;99.90;;;;;;4996133;28;20038;-92
2021/11/03 08:04:27;;;;;;;41.60;22.60;;;6.50;99.90;;;;;;4996165;28;20080;-93
2021/11/03 08:06:53;;;;;;;41.60;24.38;;;6.50;99.90;;;;;;4996044;28;20145;-88
2021/11/03 08:09:19;;;;;;;83.93;25.90;;;6.50;99.90;;;;;;4995598;28;20120;-89
2021/11/03 08:12:09;;;;;;;102.05;24.85;;;6.50;99.90;;;;;;5011420;28;20045;-89
2021/11/03 08:14:35;;;;;;;229.55;25.85;;;6.50;99.90;;;;;;5010656;28;20085;-90
2021/11/03 08:17:09;;;;;;;272.23;25.30;;;6.50;99.90;;;;;;4995056;28;20112;-88
2021/11/03 08:19:48;;;;;;;265.45;25.67;;;6.50;99.90;;;;;;5010900;28;20154;-89
2021/11/03 08:22:15;;;;;;;331.35;25.13;;;6.50;99.90;;;;;;5011012;28;20034;-89
2021/11/03 08:24:41;;;;;;;220.00;23.95;;;6.50;99.90;;;;;;5010530;28;20045;-89
2021/11/03 08:27:07;;;;;;;137.10;23.58;;;6.50;99.90;;;;;;4994935;28;20054;-89
2021/11/03 08:29:33;;;;;;;194.48;22.77;;;6.50;99.90;;;;;;5010738;28;20046;-90
2021/11/03 08:32:00;;;;;;;110.57;21.30;;;6.50;99.90;;;;;;4995450;28;20136;-90
2021/11/03 08:34:30;;;;;;;132.77;21.33;;;6.50;99.90;;;;;;4978574;28;20037;-91
2021/11/03 08:37:06;;;;;;;169.90;19.48;;;6.60;99.90;;;;;;4994944;28;20046;-91
2021/11/03 08:39:34;;;;;;;149.07;18.33;;;6.50;99.90;;;;;;4993940;28;20037;-90
2021/11/03 08:42:00;;;;;;;96.13;18.88;;;6.50;99.90;;;;;;5010847;28;20045;-89
2021/11/03 08:44:27;;;;;;;118.68;18.73;;;6.50;99.90;;;;;;5010811;28;20444;-89
2021/11/03 08:46:54;;;;;;;118.70;20.15;;;6.50;99.90;;;;;;5010768;28;20053;-91
2021/11/03 08:49:19;;;;;;;84.47;18.65;;;6.60;99.90;;;;;;4996102;28;20041;-94
2021/11/03 08:51:46;;;;;;;66.32;17.58;;;6.50;99.90;;;;;;4995384;28;20042;-94
2021/11/03 08:54:12;;;;;;;131.07;18.48;;;6.60;99.90;;;;;;4996328;28;20038;-96
2021/11/03 08:56:38;;;;;;;126.50;16.95;;;6.60;99.90;;;;;;4994680;28;20528;-95
2021/11/03 08:59:08;;;;;;;221.05;20.58;;;6.60;99.90;;;;;;4995993;28;20634;-95
2021/11/03 09:01:34;;;;;;;184.18;19.50;;;6.60;99.90;;;;;;4998553;28;20485;-96
2021/11/03 09:04:00;;;;;;;104.53;21.10;;;6.60;99.90;;;;;;5004521;28;20410;-94
2021/11/03 09:06:26;;;;;;;183.30;19.45;;;6.70;99.90;;;;;;5003639;28;20084;-94
2021/11/03 09:08:52;;;;;;;136.10;18.90;;;6.70;99.90;;;;;;5011449;28;20042;-93
2021/11/03 09:11:21;;;;;;;169.32;19.15;;;6.70;99.90;;;;;;4982832;28;20065;-96
2021/11/03 09:13:50;;;;;;;140.30;18.17;;;6.80;99.90;;;;;;5016493;28;20105;-94
2021/11/03 09:16:16;;;;;;;96.22;18.75;;;6.70;99.90;;;;;;5020953;28;20140;-96
2021/11/03 09:18:42;;;;;;;62.55;18.67;;;6.80;99.90;;;;;;5017967;28;20101;-96
2021/11/03 09:21:09;;;;;;;73.13;17.83;;;6.90;99.90;;;;;;5019699;28;20073;-94
2021/11/03 09:23:36;;;;;;;96.03;17.48;;;7.00;99.90;;;;;;5018286;28;20053;-95
2021/11/03 09:26:02;;;;;;;131.02;18.38;;;6.90;99.90;;;;;;5022089;28;20056;-96
2021/11/03 09:28:31;;;;;;;103.53;18.65;;;7.00;99.90;;;;;;5005205;28;20068;-93
2021/11/03 09:30:58;;;;;;;107.40;19.02;;;7.00;99.90;;;;;;5022274;28;20073;-95
2021/11/03 09:33:25;;;;;;;69.05;17.85;;;7.10;99.90;;;;;;4991563;28;20041;-93
2021/11/03 09:35:52;;;;;;;90.97;17.58;;;7.10;99.90;;;;;;5008866;28;20469;-94
2021/11/03 09:38:22;;;;;;;74.57;17.88;;;7.10;99.90;;;;;;5023507;28;20041;-96
2021/11/03 09:40:53;;;;;;;81.43;18.73;;;7.10;99.90;;;;;;5021646;28;20049;-95
2021/11/03 09:43:43;;;;;;;111.20;18.92;;;7.00;99.90;;;;;;5006881;28;20041;-95
2021/11/03 09:46:30;;;;;;;141.93;19.90;;;7.00;99.90;;;;;;5024074;28;20081;-95
2021/11/03 09:49:20;;;;;;;161.65;19.88;;;7.00;99.90;;;;;;5007303;28;20136;-94
2021/11/03 09:51:52;;;;;;;179.35;19.08;;;7.00;99.90;;;;;;5023322;28;20076;-95
2021/11/03 09:54:26;;;;;;;174.70;19.95;;;6.90;99.90;;;;;;5008304;28;20041;-96
2021/11/03 09:57:01;;;;;;;175.43;20.55;;;6.90;99.90;;;;;;5021057;28;20046;-93
2021/11/03 09:59:26;;;;;;;135.40;19.20;;;6.90;99.90;;;;;;5007392;28;20146;-94
2021/11/03 10:02:40;;;;;;;172.23;19.73;;;6.90;99.90;;;;;;5007587;28;20105;-95
2021/11/03 10:05:20;;;;;;;108.63;20.20;;;6.90;99.90;;;;;;4970023;28;20537;-96
2021/11/03 10:08:12;;;;;;;102.55;19.17;;;7.00;99.90;;;;;;5005803;28;20084;-95
2021/11/03 10:10:50;;;;;;;91.50;20.25;;;7.00;99.90;;;;;;5005977;28;20443;-92
2021/11/03 10:13:30;;;;;;;101.03;18.65;;;7.20;99.90;;;;;;5022332;28;20099;-94
2021/11/03 10:16:14;;;;;;;70.03;20.08;;;7.10;99.90;;;;;;5004709;28;20238;-95
2021/11/03 10:18:58;;;;;;;49.05;18.77;;;7.30;99.90;;;;;;5021439;28;20080;-93
2021/11/03 10:21:30;;;;;;;73.75;19.83;;;7.40;99.90;;;;;;5020184;28;20041;-95
2021/11/03 10:24:07;;;;;;;113.00;18.38;;;7.50;99.90;;;;;;5021435;28;20057;-95
2021/11/03 10:26:53;;;;;;;58.30;19.17;;;7.40;99.90;;;;;;5019668;28;20053;-94
2021/11/03 10:29:41;;;;;;;70.30;18.98;;;7.40;99.90;;;;;;5024656;28;20080;-96
2021/11/03 10:32:07;;;;;;;64.53;17.83;;;7.50;99.90;;;;;;5003212;28;20045;-96
2021/11/03 10:34:36;;;;;;;66.32;17.40;;;7.60;99.90;;;;;;5004116;28;20041;-96
2021/11/03 10:37:04;;;;;;;86.78;17.08;;;7.70;99.90;;;;;;5004097;28;20466;-96
2021/11/03 10:39:45;;;;;;;53.40;16.73;;;7.80;99.90;;;;;;5005154;28;20061;-95
2021/11/03 10:42:29;;;;;;;92.40;17.20;;;7.90;99.90;;;;;;5019345;28;20048;-96
2021/11/03 10:45:25;;;;;;;64.80;16.98;;;7.90;99.90;;;;;;5016776;28;20107;-95
2021/11/03 10:48:12;;;;;;;39.70;16.85;;;8.00;99.90;;;;;;5019407;28;20041;-95
2021/11/03 10:50:57;;;;;;;61.58;18.33;;;8.00;99.90;;;;;;5018509;28;20131;-93
2021/11/03 10:53:26;;;;;;;80.55;17.63;;;8.10;99.90;;;;;;5017956;28;20045;-96
2021/11/03 10:56:14;;;;;;;74.07;20.27;;;8.00;99.90;;;;;;5018296;28;20637;-94
2021/11/03 10:58:49;;;;;;;95.88;18.65;;;8.00;99.90;;;;;;5001146;28;20049;-92
2021/11/03 11:01:34;;;;;;;77.95;20.98;;;7.90;99.90;;;;;;5019256;28;20048;-95
2021/11/03 11:04:21;;;;;;;40.95;18.98;;;7.90;99.90;;;;;;5017517;28;20230;-96
2021/11/03 11:06:53;;;;;;;50.97;20.30;;;7.90;99.90;;;;;;5003131;28;20053;-94
2021/11/03 11:09:42;;;;;;;48.03;19.88;;;7.80;99.90;;;;;;5017282;28;20362;-96
2021/11/03 11:12:27;;;;;;;47.17;21.30;;;7.90;99.90;;;;;;5002459;28;20050;-93
2021/11/03 11:15:21;;;;;;;50.50;21.55;;;7.90;99.90;;;;;;5002594;28;20045;-95
2021/11/03 11:18:27;;;;;;;52.30;21.92;;;7.90;99.90;;;;;;5027472;28;20249;-94
2021/11/03 11:20:57;;;;;;;36.30;20.52;;;8.00;99.90;;;;;;5017623;28;20101;-94
2021/11/03 11:23:35;;;;;;;35.42;22.25;;;8.10;99.90;;;;;;5018206;28;20045;-95
2021/11/03 11:26:22;;;;;;;37.20;22.45;;;8.10;99.90;;;;;;4994061;28;20046;-94
2021/11/03 11:29:10;;;;;;;32.08;23.38;;;8.30;99.90;;;;;;4994254;28;20085;-96
2021/11/03 11:32:14;;;;;;;39.20;23.35;;;8.40;99.90;;;;;;4994436;28;20092;-95
2021/11/03 11:34:55;;;;;;;34.03;23.05;;;8.60;99.90;;;;;;4940821;28;20058;-94
2021/11/03 11:37:52;;;;;;;30.60;21.35;;;8.50;99.90;;;;;;4994703;28;20046;-94
2021/11/03 11:40:17;;;;;;;31.35;21.30;;;8.50;99.90;;;;;;4979414;28;20038;-95
2021/11/03 11:42:56;;;;;;;31.30;21.05;;;8.50;99.90;;;;;;4994365;28;20084;-91
2021/11/03 11:45:33;;;;;;;34.95;21.10;;;8.60;99.90;;;;;;4993883;28;20077;-95
2021/11/03 11:48:03;;;;;;;29.48;21.23;;;8.70;99.90;;;;;;4994052;28;20042;-94
2021/11/03 11:50:45;;;;;;;30.33;21.15;;;8.70;99.90;;;;;;4993085;28;20155;-92
2021/11/03 11:53:22;;;;;;;34.20;22.80;;;8.80;99.90;;;;;;4993761;28;20055;-93
2021/11/03 11:56:07;;;;;;;38.38;22.20;;;8.60;99.90;;;;;;4992940;28;20493;-93
2021/11/03 11:58:35;;;;;;;36.42;23.02;;;8.70;99.90;;;;;;4976932;28;20046;-95
2021/11/03 12:01:12;;;;;;;32.03;23.52;;;8.80;99.90;;;;;;4993551;28;20046;-93
2021/11/03 12:03:56;;;;;;;44.25;23.80;;;8.80;99.90;;;;;;4992889;28;20038;-96
2021/11/03 12:06:36;;;;;;;36.35;22.85;;;8.80;99.90;;;;;;4993341;28;20046;-94
2021/11/03 12:09:24;;;;;;;30.73;22.05;;;8.70;99.90;;;;;;4992660;28;20042;-94
2021/11/03 12:11:51;;;;;;;30.08;21.60;;;8.70;99.90;;;;;;4976559;28;20042;-95
2021/11/03 12:14:23;;;;;;;33.35;20.63;;;8.80;99.90;;;;;;4992772;28;20590;-91
2021/11/03 12:17:15;;;;;;;30.77;21.45;;;8.90;99.90;;;;;;4976748;28;20448;-93
2021/11/03 12:19:46;;;;;;;30.58;21.52;;;8.90;99.90;;;;;;4993232;28;20038;-94
2021/11/03 12:22:41;;;;;;;36.83;23.00;;;8.90;99.90;;;;;;4993718;28;20046;-95
2021/11/03 12:25:19;;;;;;;35.25;21.42;;;9.00;99.90;;;;;;4988877;28;20523;-95
2021/11/03 12:27:46;;;;;;;30.48;21.42;;;9.10;99.90;;;;;;4995866;28;20532;-93
2021/11/03 12:30:12;;;;;;;33.45;22.27;;;9.00;99.90;;;;;;4996665;28;20048;-93
2021/11/03 12:32:59;;;;;;;34.97;22.05;;;9.10;99.90;;;;;;5013129;28;20046;-95
2021/11/03 12:35:25;;;;;;;30.77;21.30;;;9.30;99.90;;;;;;5013460;28;20049;-95
2021/11/03 12:37:56;;;;;;;31.15;21.85;;;9.30;99.90;;;;;;5012247;28;20038;-95
2021/11/03 12:40:30;;;;;;;33.72;21.63;;;9.30;99.90;;;;;;4996664;28;20042;-95
2021/11/03 12:43:02;;;;;;;34.30;20.90;;;9.30;99.90;;;;;;5011887;28;20488;-93
2021/11/03 12:45:37;;;;;;;29.35;19.48;;;9.30;99.90;;;;;;4996150;28;20077;-95
2021/11/03 12:48:03;;;;;;;32.28;18.80;;;9.30;99.90;;;;;;5012120;28;20034;-94
2021/11/03 12:50:40;;;;;;;30.45;19.38;;;9.30;99.90;;;;;;4996041;28;20044;-95
2021/11/03 12:53:20;;;;;;;34.33;20.83;;;9.20;99.90;;;;;;5011699;28;20466;-93